sensor_id;sensor_type;location;lat;lon;timestamp;temperature;humidity
22787;DHT22;63134;52.020;4.714;2024-01-11T00:00:18;-2.30;86.10
22787;DHT22;63134;52.020;4.714;2024-01-11T00:03:04;-2.30;86.10
22787;DHT22;63134;52.020;4.714;2024-01-11T00:05:50;-2.30;86.10
22787;DHT22;63134;52.020;4.714;2024-01-11T00:08:36;-2.30;86.20
22787;DHT22;63134;52.020;4.714;2024-01-11T00:11:22;-2.30;86.40
22787;DHT22;63134;52.020;4.714;2024-01-11T00:14:07;-2.30;86.40
22787;DHT22;63134;52.020;4.714;2024-01-11T00:16:52;-2.30;86.50
22787;DHT22;63134;52.020;4.714;2024-01-11T00:19:38;-2.30;86.60
22787;DHT22;63134;52.020;4.714;2024-01-11T00:22:24;-2.20;86.40
22787;DHT22;63134;52.020;4.714;2024-01-11T00:25:09;-2.30;86.50
22787;DHT22;63134;52.020;4.714;2024-01-11T00:27:55;-2.30;86.30
22787;DHT22;63134;52.020;4.714;2024-01-11T00:30:40;-2.40;86.50
22787;DHT22;63134;52.020;4.714;2024-01-11T00:33:26;-2.30;86.70
22787;DHT22;63134;52.020;4.714;2024-01-11T00:36:17;-2.40;86.80
22787;DHT22;63134;52.020;4.714;2024-01-11T00:39:04;-2.40;86.70
22787;DHT22;63134;52.020;4.714;2024-01-11T00:41:49;-2.40;86.90
22787;DHT22;63134;52.020;4.714;2024-01-11T00:44:39;-2.40;86.90
22787;DHT22;63134;52.020;4.714;2024-01-11T00:47:24;-2.40;87.10
22787;DHT22;63134;52.020;4.714;2024-01-11T00:50:10;-2.40;87.00
22787;DHT22;63134;52.020;4.714;2024-01-11T00:52:56;-2.50;87.10
22787;DHT22;63134;52.020;4.714;2024-01-11T00:55:42;-2.50;87.10
22787;DHT22;63134;52.020;4.714;2024-01-11T00:58:28;-2.50;87.20
22787;DHT22;63134;52.020;4.714;2024-01-11T01:01:13;-2.50;87.20
22787;DHT22;63134;52.020;4.714;2024-01-11T01:03:59;-2.50;87.30
22787;DHT22;63134;52.020;4.714;2024-01-11T01:06:45;-2.50;87.60
22787;DHT22;63134;52.020;4.714;2024-01-11T01:09:30;-2.60;87.60
22787;DHT22;63134;52.020;4.714;2024-01-11T01:12:16;-2.60;87.60
22787;DHT22;63134;52.020;4.714;2024-01-11T01:15:01;-2.60;87.70
22787;DHT22;63134;52.020;4.714;2024-01-11T01:17:47;-2.60;87.80
22787;DHT22;63134;52.020;4.714;2024-01-11T01:20:34;-2.60;87.80
22787;DHT22;63134;52.020;4.714;2024-01-11T01:23:20;-2.60;87.90
22787;DHT22;63134;52.020;4.714;2024-01-11T01:26:06;-2.70;88.00
22787;DHT22;63134;52.020;4.714;2024-01-11T01:28:52;-2.70;88.20
22787;DHT22;63134;52.020;4.714;2024-01-11T01:31:37;-2.70;88.40
22787;DHT22;63134;52.020;4.714;2024-01-11T01:34:23;-2.70;88.30
22787;DHT22;63134;52.020;4.714;2024-01-11T01:37:09;-2.70;88.50
22787;DHT22;63134;52.020;4.714;2024-01-11T01:39:54;-2.70;88.60
22787;DHT22;63134;52.020;4.714;2024-01-11T01:42:44;-2.70;88.70
22787;DHT22;63134;52.020;4.714;2024-01-11T01:45:30;-2.70;88.60
22787;DHT22;63134;52.020;4.714;2024-01-11T01:48:15;-2.70;88.80
22787;DHT22;63134;52.020;4.714;2024-01-11T01:51:01;-2.80;88.60
22787;DHT22;63134;52.020;4.714;2024-01-11T01:53:48;-2.80;88.70
22787;DHT22;63134;52.020;4.714;2024-01-11T01:56:34;-2.80;88.90
22787;DHT22;63134;52.020;4.714;2024-01-11T01:59:20;-2.90;88.90
22787;DHT22;63134;52.020;4.714;2024-01-11T02:02:06;-2.90;89.00
22787;DHT22;63134;52.020;4.714;2024-01-11T02:04:53;-2.90;89.10
22787;DHT22;63134;52.020;4.714;2024-01-11T02:07:39;-2.90;89.30
22787;DHT22;63134;52.020;4.714;2024-01-11T02:10:25;-3.00;89.40
22787;DHT22;63134;52.020;4.714;2024-01-11T02:13:11;-3.00;89.50
22787;DHT22;63134;52.020;4.714;2024-01-11T02:15:58;-3.00;90.10
22787;DHT22;63134;52.020;4.714;2024-01-11T02:18:43;-3.00;89.60
22787;DHT22;63134;52.020;4.714;2024-01-11T02:21:31;-3.00;89.60
22787;DHT22;63134;52.020;4.714;2024-01-11T02:24:18;-3.10;89.60
22787;DHT22;63134;52.020;4.714;2024-01-11T02:27:04;-3.10;89.70
22787;DHT22;63134;52.020;4.714;2024-01-11T02:29:50;-3.10;89.90
22787;DHT22;63134;52.020;4.714;2024-01-11T02:32:35;-3.10;90.00
22787;DHT22;63134;52.020;4.714;2024-01-11T02:35:21;-3.10;90.10
22787;DHT22;63134;52.020;4.714;2024-01-11T02:38:07;-3.10;90.10
22787;DHT22;63134;52.020;4.714;2024-01-11T02:40:53;-3.10;90.10
22787;DHT22;63134;52.020;4.714;2024-01-11T02:43:39;-3.10;90.20
22787;DHT22;63134;52.020;4.714;2024-01-11T02:46:25;-3.10;90.10
22787;DHT22;63134;52.020;4.714;2024-01-11T02:49:10;-3.20;90.50
22787;DHT22;63134;52.020;4.714;2024-01-11T02:51:56;-3.20;90.30
22787;DHT22;63134;52.020;4.714;2024-01-11T02:54:41;-3.20;90.20
22787;DHT22;63134;52.020;4.714;2024-01-11T02:57:27;-3.20;90.50
22787;DHT22;63134;52.020;4.714;2024-01-11T03:00:12;-3.20;90.40
22787;DHT22;63134;52.020;4.714;2024-01-11T03:02:58;-3.20;90.50
22787;DHT22;63134;52.020;4.714;2024-01-11T03:05:44;-3.30;90.30
22787;DHT22;63134;52.020;4.714;2024-01-11T03:08:29;-3.30;90.40
22787;DHT22;63134;52.020;4.714;2024-01-11T03:11:16;-3.30;90.40
22787;DHT22;63134;52.020;4.714;2024-01-11T03:14:02;-3.40;90.30
22787;DHT22;63134;52.020;4.714;2024-01-11T03:16:48;-3.40;90.40
22787;DHT22;63134;52.020;4.714;2024-01-11T03:19:33;-3.40;90.40
22787;DHT22;63134;52.020;4.714;2024-01-11T03:22:19;-3.40;90.50
22787;DHT22;63134;52.020;4.714;2024-01-11T03:25:05;-3.50;90.50
22787;DHT22;63134;52.020;4.714;2024-01-11T03:27:51;-3.50;90.60
22787;DHT22;63134;52.020;4.714;2024-01-11T03:30:36;-3.50;90.70
22787;DHT22;63134;52.020;4.714;2024-01-11T03:33:22;-3.50;90.70
22787;DHT22;63134;52.020;4.714;2024-01-11T03:36:09;-3.50;90.70
22787;DHT22;63134;52.020;4.714;2024-01-11T03:38:54;-3.40;90.90
22787;DHT22;63134;52.020;4.714;2024-01-11T03:41:44;-3.50;91.20
22787;DHT22;63134;52.020;4.714;2024-01-11T03:44:30;-3.40;90.90
22787;DHT22;63134;52.020;4.714;2024-01-11T03:47:16;-3.40;90.90
22787;DHT22;63134;52.020;4.714;2024-01-11T03:50:02;-3.40;91.00
22787;DHT22;63134;52.020;4.714;2024-01-11T03:52:48;-3.40;91.10
22787;DHT22;63134;52.020;4.714;2024-01-11T03:55:34;-3.40;91.10
22787;DHT22;63134;52.020;4.714;2024-01-11T03:58:19;-3.40;91.00
22787;DHT22;63134;52.020;4.714;2024-01-11T04:01:05;-3.50;91.00
22787;DHT22;63134;52.020;4.714;2024-01-11T04:03:52;-3.50;91.00
22787;DHT22;63134;52.020;4.714;2024-01-11T04:06:37;-3.50;91.20
22787;DHT22;63134;52.020;4.714;2024-01-11T04:09:23;-3.50;91.20
22787;DHT22;63134;52.020;4.714;2024-01-11T04:12:09;-3.60;91.30
22787;DHT22;63134;52.020;4.714;2024-01-11T04:14:55;-3.60;91.40
22787;DHT22;63134;52.020;4.714;2024-01-11T04:17:40;-3.50;91.50
22787;DHT22;63134;52.020;4.714;2024-01-11T04:20:26;-3.50;91.50
22787;DHT22;63134;52.020;4.714;2024-01-11T04:23:11;-3.60;91.30
22787;DHT22;63134;52.020;4.714;2024-01-11T04:25:57;-3.60;91.60
22787;DHT22;63134;52.020;4.714;2024-01-11T04:28:47;-3.50;91.60
22787;DHT22;63134;52.020;4.714;2024-01-11T04:31:33;-3.50;91.80
22787;DHT22;63134;52.020;4.714;2024-01-11T04:34:18;-3.50;92.00
22787;DHT22;63134;52.020;4.714;2024-01-11T04:37:04;-3.50;91.80
22787;DHT22;63134;52.020;4.714;2024-01-11T04:39:49;-3.50;91.80
22787;DHT22;63134;52.020;4.714;2024-01-11T04:42:35;-3.50;91.90
22787;DHT22;63134;52.020;4.714;2024-01-11T04:45:20;-3.50;91.80
22787;DHT22;63134;52.020;4.714;2024-01-11T04:48:06;-3.50;91.90
22787;DHT22;63134;52.020;4.714;2024-01-11T04:50:52;-3.50;91.90
22787;DHT22;63134;52.020;4.714;2024-01-11T04:53:41;-3.50;92.00
22787;DHT22;63134;52.020;4.714;2024-01-11T04:56:27;-3.50;92.00
22787;DHT22;63134;52.020;4.714;2024-01-11T04:59:15;-3.50;92.00
22787;DHT22;63134;52.020;4.714;2024-01-11T05:02:00;-3.40;92.30
22787;DHT22;63134;52.020;4.714;2024-01-11T05:04:46;-3.40;92.20
22787;DHT22;63134;52.020;4.714;2024-01-11T05:07:31;-3.40;92.20
22787;DHT22;63134;52.020;4.714;2024-01-11T05:10:17;-3.40;92.20
22787;DHT22;63134;52.020;4.714;2024-01-11T05:13:03;-3.40;92.20
22787;DHT22;63134;52.020;4.714;2024-01-11T05:15:48;-3.40;92.20
22787;DHT22;63134;52.020;4.714;2024-01-11T05:18:34;-3.40;92.30
22787;DHT22;63134;52.020;4.714;2024-01-11T05:21:20;-3.50;92.30
22787;DHT22;63134;52.020;4.714;2024-01-11T05:24:06;-3.50;92.40
22787;DHT22;63134;52.020;4.714;2024-01-11T05:26:56;-3.50;92.30
22787;DHT22;63134;52.020;4.714;2024-01-11T05:29:41;-3.50;92.30
22787;DHT22;63134;52.020;4.714;2024-01-11T05:32:27;-3.50;92.40
22787;DHT22;63134;52.020;4.714;2024-01-11T05:35:13;-3.40;92.60
22787;DHT22;63134;52.020;4.714;2024-01-11T05:37:59;-3.40;92.50
22787;DHT22;63134;52.020;4.714;2024-01-11T05:40:44;-3.40;92.60
22787;DHT22;63134;52.020;4.714;2024-01-11T05:43:29;-3.40;92.70
22787;DHT22;63134;52.020;4.714;2024-01-11T05:46:15;-3.40;92.50
22787;DHT22;63134;52.020;4.714;2024-01-11T05:49:01;-3.40;92.40
22787;DHT22;63134;52.020;4.714;2024-01-11T05:51:47;-3.50;92.50
22787;DHT22;63134;52.020;4.714;2024-01-11T05:54:32;-3.50;92.60
22787;DHT22;63134;52.020;4.714;2024-01-11T05:57:18;-3.50;92.40
22787;DHT22;63134;52.020;4.714;2024-01-11T06:00:04;-3.50;92.40
22787;DHT22;63134;52.020;4.714;2024-01-11T06:02:50;-3.50;92.50
22787;DHT22;63134;52.020;4.714;2024-01-11T06:05:36;-3.60;92.30
22787;DHT22;63134;52.020;4.714;2024-01-11T06:08:21;-3.70;92.30
22787;DHT22;63134;52.020;4.714;2024-01-11T06:11:07;-3.70;92.40
22787;DHT22;63134;52.020;4.714;2024-01-11T06:13:53;-3.70;92.60
22787;DHT22;63134;52.020;4.714;2024-01-11T06:16:40;-3.70;92.50
22787;DHT22;63134;52.020;4.714;2024-01-11T06:19:26;-3.70;92.40
22787;DHT22;63134;52.020;4.714;2024-01-11T06:22:11;-3.70;92.30
22787;DHT22;63134;52.020;4.714;2024-01-11T06:24:57;-3.70;92.50
22787;DHT22;63134;52.020;4.714;2024-01-11T06:27:44;-3.70;92.50
22787;DHT22;63134;52.020;4.714;2024-01-11T06:30:29;-3.70;92.50
22787;DHT22;63134;52.020;4.714;2024-01-11T06:33:15;-3.70;92.70
22787;DHT22;63134;52.020;4.714;2024-01-11T06:36:01;-3.70;92.50
22787;DHT22;63134;52.020;4.714;2024-01-11T06:38:46;-3.70;92.40
22787;DHT22;63134;52.020;4.714;2024-01-11T06:41:32;-3.70;92.50
22787;DHT22;63134;52.020;4.714;2024-01-11T06:44:17;-3.60;92.80
22787;DHT22;63134;52.020;4.714;2024-01-11T06:47:03;-3.60;92.60
22787;DHT22;63134;52.020;4.714;2024-01-11T06:49:50;-3.60;92.60
22787;DHT22;63134;52.020;4.714;2024-01-11T06:52:36;-3.60;92.70
22787;DHT22;63134;52.020;4.714;2024-01-11T06:55:21;-3.50;92.80
22787;DHT22;63134;52.020;4.714;2024-01-11T06:58:07;-3.50;92.80
22787;DHT22;63134;52.020;4.714;2024-01-11T07:00:52;-3.50;92.80
22787;DHT22;63134;52.020;4.714;2024-01-11T07:03:39;-3.50;92.90
22787;DHT22;63134;52.020;4.714;2024-01-11T07:06:24;-3.50;92.80
22787;DHT22;63134;52.020;4.714;2024-01-11T07:09:10;-3.50;93.30
22787;DHT22;63134;52.020;4.714;2024-01-11T07:11:56;-3.60;92.90
22787;DHT22;63134;52.020;4.714;2024-01-11T07:14:42;-3.50;93.00
22787;DHT22;63134;52.020;4.714;2024-01-11T07:17:28;-3.60;93.10
22787;DHT22;63134;52.020;4.714;2024-01-11T07:20:13;-3.50;93.10
22787;DHT22;63134;52.020;4.714;2024-01-11T07:23:01;-3.50;93.10
22787;DHT22;63134;52.020;4.714;2024-01-11T07:25:47;-3.50;93.20
22787;DHT22;63134;52.020;4.714;2024-01-11T07:28:32;-3.50;93.30
22787;DHT22;63134;52.020;4.714;2024-01-11T07:31:18;-3.50;93.30
22787;DHT22;63134;52.020;4.714;2024-01-11T07:34:03;-3.50;93.50
22787;DHT22;63134;52.020;4.714;2024-01-11T07:36:51;-3.40;93.50
22787;DHT22;63134;52.020;4.714;2024-01-11T07:39:37;-3.40;93.60
22787;DHT22;63134;52.020;4.714;2024-01-11T07:42:23;-3.40;93.50
22787;DHT22;63134;52.020;4.714;2024-01-11T07:45:10;-3.30;93.50
22787;DHT22;63134;52.020;4.714;2024-01-11T07:47:55;-3.30;93.50
22787;DHT22;63134;52.020;4.714;2024-01-11T07:50:41;-3.30;93.40
22787;DHT22;63134;52.020;4.714;2024-01-11T07:53:27;-3.30;93.40
22787;DHT22;63134;52.020;4.714;2024-01-11T07:56:12;-3.30;93.50
22787;DHT22;63134;52.020;4.714;2024-01-11T07:58:59;-3.30;93.50
22787;DHT22;63134;52.020;4.714;2024-01-11T08:01:44;-3.30;93.50
22787;DHT22;63134;52.020;4.714;2024-01-11T08:04:30;-3.20;93.70
22787;DHT22;63134;52.020;4.714;2024-01-11T08:07:16;-3.10;93.80
22787;DHT22;63134;52.020;4.714;2024-01-11T08:10:01;-3.00;93.80
22787;DHT22;63134;52.020;4.714;2024-01-11T08:12:49;-3.00;93.70
22787;DHT22;63134;52.020;4.714;2024-01-11T08:15:34;-2.90;93.60
22787;DHT22;63134;52.020;4.714;2024-01-11T08:18:20;-2.80;93.80
22787;DHT22;63134;52.020;4.714;2024-01-11T08:21:05;-2.80;93.70
22787;DHT22;63134;52.020;4.714;2024-01-11T08:23:54;-2.70;93.60
22787;DHT22;63134;52.020;4.714;2024-01-11T08:26:44;-2.70;93.50
22787;DHT22;63134;52.020;4.714;2024-01-11T08:29:30;-2.70;93.60
22787;DHT22;63134;52.020;4.714;2024-01-11T08:32:15;-2.60;93.60
22787;DHT22;63134;52.020;4.714;2024-01-11T08:35:15;-2.60;93.60
22787;DHT22;63134;52.020;4.714;2024-01-11T08:38:01;-2.50;93.60
22787;DHT22;63134;52.020;4.714;2024-01-11T08:40:48;-2.40;93.60
22787;DHT22;63134;52.020;4.714;2024-01-11T08:43:34;-2.40;93.70
22787;DHT22;63134;52.020;4.714;2024-01-11T08:46:26;-2.30;93.70
22787;DHT22;63134;52.020;4.714;2024-01-11T08:49:12;-2.30;93.70
22787;DHT22;63134;52.020;4.714;2024-01-11T08:51:57;-2.20;93.60
22787;DHT22;63134;52.020;4.714;2024-01-11T08:54:43;-2.20;93.60
22787;DHT22;63134;52.020;4.714;2024-01-11T08:57:29;-2.10;93.70
22787;DHT22;63134;52.020;4.714;2024-01-11T09:00:14;-2.10;93.70
22787;DHT22;63134;52.020;4.714;2024-01-11T09:03:04;-2.00;93.60
22787;DHT22;63134;52.020;4.714;2024-01-11T09:05:50;-2.00;93.70
22787;DHT22;63134;52.020;4.714;2024-01-11T09:08:36;-1.90;93.70
22787;DHT22;63134;52.020;4.714;2024-01-11T09:11:22;-1.80;93.70
22787;DHT22;63134;52.020;4.714;2024-01-11T09:14:07;-1.80;93.60
22787;DHT22;63134;52.020;4.714;2024-01-11T09:16:56;-1.70;93.60
22787;DHT22;63134;52.020;4.714;2024-01-11T09:19:41;-1.60;93.60
22787;DHT22;63134;52.020;4.714;2024-01-11T09:22:27;-1.50;93.70
22787;DHT22;63134;52.020;4.714;2024-01-11T09:25:13;-1.40;93.80
22787;DHT22;63134;52.020;4.714;2024-01-11T09:27:59;-1.30;93.70
22787;DHT22;63134;52.020;4.714;2024-01-11T09:30:45;-1.20;93.60
22787;DHT22;63134;52.020;4.714;2024-01-11T09:33:31;-1.10;93.50
22787;DHT22;63134;52.020;4.714;2024-01-11T09:36:17;-1.00;93.40
22787;DHT22;63134;52.020;4.714;2024-01-11T09:39:02;-0.80;93.70
22787;DHT22;63134;52.020;4.714;2024-01-11T09:41:57;-0.30;94.40
22787;DHT22;63134;52.020;4.714;2024-01-11T09:44:43;0.20;94.60
22787;DHT22;63134;52.020;4.714;2024-01-11T09:47:29;0.50;94.40
22787;DHT22;63134;52.020;4.714;2024-01-11T09:50:16;0.80;93.90
22787;DHT22;63134;52.020;4.714;2024-01-11T09:53:04;0.90;93.40
22787;DHT22;63134;52.020;4.714;2024-01-11T09:55:54;1.10;93.20
22787;DHT22;63134;52.020;4.714;2024-01-11T09:58:46;1.30;92.70
22787;DHT22;63134;52.020;4.714;2024-01-11T10:01:35;1.40;92.50
22787;DHT22;63134;52.020;4.714;2024-01-11T10:04:20;1.50;92.20
22787;DHT22;63134;52.020;4.714;2024-01-11T10:07:07;1.60;92.10
22787;DHT22;63134;52.020;4.714;2024-01-11T10:09:53;1.60;91.90
22787;DHT22;63134;52.020;4.714;2024-01-11T10:12:39;1.70;91.70
22787;DHT22;63134;52.020;4.714;2024-01-11T10:15:24;1.80;92.00
22787;DHT22;63134;52.020;4.714;2024-01-11T10:18:10;1.90;91.50
22787;DHT22;63134;52.020;4.714;2024-01-11T10:20:57;1.90;91.50
22787;DHT22;63134;52.020;4.714;2024-01-11T10:23:43;2.00;91.90
22787;DHT22;63134;52.020;4.714;2024-01-11T10:26:30;2.20;91.90
22787;DHT22;63134;52.020;4.714;2024-01-11T10:29:16;2.30;91.70
22787;DHT22;63134;52.020;4.714;2024-01-11T10:32:04;2.40;91.60
22787;DHT22;63134;52.020;4.714;2024-01-11T10:34:49;2.40;91.40
22787;DHT22;63134;52.020;4.714;2024-01-11T10:37:37;2.50;91.40
22787;DHT22;63134;52.020;4.714;2024-01-11T10:40:25;2.60;91.60
22787;DHT22;63134;52.020;4.714;2024-01-11T10:43:12;2.60;91.10
22787;DHT22;63134;52.020;4.714;2024-01-11T10:46:01;2.70;91.50
22787;DHT22;63134;52.020;4.714;2024-01-11T10:48:53;2.80;91.40
22787;DHT22;63134;52.020;4.714;2024-01-11T10:51:43;2.80;91.20
22787;DHT22;63134;52.020;4.714;2024-01-11T10:54:30;2.90;91.60
22787;DHT22;63134;52.020;4.714;2024-01-11T10:57:17;3.00;91.30
22787;DHT22;63134;52.020;4.714;2024-01-11T11:00:03;3.10;91.50
22787;DHT22;63134;52.020;4.714;2024-01-11T11:02:49;3.20;91.10
22787;DHT22;63134;52.020;4.714;2024-01-11T11:05:36;3.30;91.00
22787;DHT22;63134;52.020;4.714;2024-01-11T11:08:23;3.30;91.10
22787;DHT22;63134;52.020;4.714;2024-01-11T11:11:11;3.40;91.20
22787;DHT22;63134;52.020;4.714;2024-01-11T11:14:01;3.50;90.90
22787;DHT22;63134;52.020;4.714;2024-01-11T11:16:48;3.50;90.70
22787;DHT22;63134;52.020;4.714;2024-01-11T11:19:36;3.50;90.80
22787;DHT22;63134;52.020;4.714;2024-01-11T11:22:22;3.50;90.60
22787;DHT22;63134;52.020;4.714;2024-01-11T11:25:24;3.50;91.00
22787;DHT22;63134;52.020;4.714;2024-01-11T11:28:12;3.60;90.90
22787;DHT22;63134;52.020;4.714;2024-01-11T11:31:01;3.60;91.00
22787;DHT22;63134;52.020;4.714;2024-01-11T11:33:49;3.70;90.70
22787;DHT22;63134;52.020;4.714;2024-01-11T11:36:36;3.60;90.50
22787;DHT22;63134;52.020;4.714;2024-01-11T11:39:21;3.60;90.70
22787;DHT22;63134;52.020;4.714;2024-01-11T11:42:09;3.60;91.10
22787;DHT22;63134;52.020;4.714;2024-01-11T11:44:55;3.80;91.30
22787;DHT22;63134;52.020;4.714;2024-01-11T11:47:43;3.90;91.10
22787;DHT22;63134;52.020;4.714;2024-01-11T11:50:31;3.90;90.90
22787;DHT22;63134;52.020;4.714;2024-01-11T11:53:18;4.00;91.30
22787;DHT22;63134;52.020;4.714;2024-01-11T11:56:04;4.10;91.10
22787;DHT22;63134;52.020;4.714;2024-01-11T11:58:50;4.20;91.40
22787;DHT22;63134;52.020;4.714;2024-01-11T12:01:38;4.40;91.60
22787;DHT22;63134;52.020;4.714;2024-01-11T12:04:25;4.50;91.40
22787;DHT22;63134;52.020;4.714;2024-01-11T12:07:11;4.70;91.50
22787;DHT22;63134;52.020;4.714;2024-01-11T12:09:56;4.90;91.60
22787;DHT22;63134;52.020;4.714;2024-01-11T12:12:45;5.00;91.70
22787;DHT22;63134;52.020;4.714;2024-01-11T12:15:31;5.20;91.30
22787;DHT22;63134;52.020;4.714;2024-01-11T12:18:17;5.30;91.50
22787;DHT22;63134;52.020;4.714;2024-01-11T12:21:03;5.40;91.50
22787;DHT22;63134;52.020;4.714;2024-01-11T12:23:49;5.50;91.40
22787;DHT22;63134;52.020;4.714;2024-01-11T12:26:35;5.50;91.40
22787;DHT22;63134;52.020;4.714;2024-01-11T12:29:21;5.60;91.40
22787;DHT22;63134;52.020;4.714;2024-01-11T12:32:07;5.70;91.60
22787;DHT22;63134;52.020;4.714;2024-01-11T12:34:57;5.80;91.80
22787;DHT22;63134;52.020;4.714;2024-01-11T12:37:55;5.90;91.70
22787;DHT22;63134;52.020;4.714;2024-01-11T12:40:40;6.00;91.60
22787;DHT22;63134;52.020;4.714;2024-01-11T12:43:26;6.00;91.40
22787;DHT22;63134;52.020;4.714;2024-01-11T12:46:11;6.10;91.50
22787;DHT22;63134;52.020;4.714;2024-01-11T12:48:57;6.10;91.40
22787;DHT22;63134;52.020;4.714;2024-01-11T12:51:43;6.10;91.30
22787;DHT22;63134;52.020;4.714;2024-01-11T12:54:32;6.10;91.70
22787;DHT22;63134;52.020;4.714;2024-01-11T12:57:19;6.10;91.70
22787;DHT22;63134;52.020;4.714;2024-01-11T13:02:59;6.20;91.60
22787;DHT22;63134;52.020;4.714;2024-01-11T13:05:44;6.10;91.10
22787;DHT22;63134;52.020;4.714;2024-01-11T13:08:31;6.10;91.10
22787;DHT22;63134;52.020;4.714;2024-01-11T13:11:17;6.00;91.40
22787;DHT22;63134;52.020;4.714;2024-01-11T13:14:03;6.00;91.40
22787;DHT22;63134;52.020;4.714;2024-01-11T13:16:52;6.00;91.30
22787;DHT22;63134;52.020;4.714;2024-01-11T13:19:37;5.90;91.20
22787;DHT22;63134;52.020;4.714;2024-01-11T13:22:23;5.90;91.10
22787;DHT22;63134;52.020;4.714;2024-01-11T13:25:10;5.80;91.30
22787;DHT22;63134;52.020;4.714;2024-01-11T13:27:55;5.80;91.20
22787;DHT22;63134;52.020;4.714;2024-01-11T13:30:42;5.80;91.20
22787;DHT22;63134;52.020;4.714;2024-01-11T13:33:28;5.70;91.20
22787;DHT22;63134;52.020;4.714;2024-01-11T13:36:14;5.70;91.40
22787;DHT22;63134;52.020;4.714;2024-01-11T13:38:59;5.70;91.20
22787;DHT22;63134;52.020;4.714;2024-01-11T13:41:46;5.70;91.30
22787;DHT22;63134;52.020;4.714;2024-01-11T13:44:32;5.60;91.40
22787;DHT22;63134;52.020;4.714;2024-01-11T13:47:18;5.60;91.20
22787;DHT22;63134;52.020;4.714;2024-01-11T13:50:04;5.50;91.20
22787;DHT22;63134;52.020;4.714;2024-01-11T13:52:50;5.50;91.20
22787;DHT22;63134;52.020;4.714;2024-01-11T13:55:36;5.50;91.20
22787;DHT22;63134;52.020;4.714;2024-01-11T13:58:25;5.50;91.50
22787;DHT22;63134;52.020;4.714;2024-01-11T14:01:12;5.40;91.40
22787;DHT22;63134;52.020;4.714;2024-01-11T14:03:59;5.40;91.40
22787;DHT22;63134;52.020;4.714;2024-01-11T14:06:44;5.40;91.30
22787;DHT22;63134;52.020;4.714;2024-01-11T14:09:33;5.40;91.20
22787;DHT22;63134;52.020;4.714;2024-01-11T14:12:18;5.40;91.20
22787;DHT22;63134;52.020;4.714;2024-01-11T14:15:05;5.40;91.40
22787;DHT22;63134;52.020;4.714;2024-01-11T14:17:51;5.30;91.40
22787;DHT22;63134;52.020;4.714;2024-01-11T14:20:37;5.30;91.40
22787;DHT22;63134;52.020;4.714;2024-01-11T14:23:23;5.30;91.40
22787;DHT22;63134;52.020;4.714;2024-01-11T14:26:09;5.30;91.70
22787;DHT22;63134;52.020;4.714;2024-01-11T14:28:54;5.20;91.30
22787;DHT22;63134;52.020;4.714;2024-01-11T14:31:40;5.20;91.30
22787;DHT22;63134;52.020;4.714;2024-01-11T14:34:25;5.10;91.10
22787;DHT22;63134;52.020;4.714;2024-01-11T14:37:13;5.10;91.10
22787;DHT22;63134;52.020;4.714;2024-01-11T14:40:00;5.10;91.20
22787;DHT22;63134;52.020;4.714;2024-01-11T14:42:46;5.00;91.30
22787;DHT22;63134;52.020;4.714;2024-01-11T14:45:31;5.00;91.20
22787;DHT22;63134;52.020;4.714;2024-01-11T14:48:17;4.90;91.10
22787;DHT22;63134;52.020;4.714;2024-01-11T14:51:02;4.90;91.20
22787;DHT22;63134;52.020;4.714;2024-01-11T14:53:50;4.80;91.30
22787;DHT22;63134;52.020;4.714;2024-01-11T14:56:36;4.80;91.40
22787;DHT22;63134;52.020;4.714;2024-01-11T14:59:22;4.80;91.60
22787;DHT22;63134;52.020;4.714;2024-01-11T15:02:08;4.70;91.60
22787;DHT22;63134;52.020;4.714;2024-01-11T15:04:55;4.70;91.60
22787;DHT22;63134;52.020;4.714;2024-01-11T15:07:40;4.70;91.70
22787;DHT22;63134;52.020;4.714;2024-01-11T15:10:26;4.70;91.80
22787;DHT22;63134;52.020;4.714;2024-01-11T15:13:11;4.70;91.80
22787;DHT22;63134;52.020;4.714;2024-01-11T15:15:57;4.70;91.70
22787;DHT22;63134;52.020;4.714;2024-01-11T15:18:42;4.70;91.90
22787;DHT22;63134;52.020;4.714;2024-01-11T15:21:28;4.70;91.90
22787;DHT22;63134;52.020;4.714;2024-01-11T15:24:14;4.70;92.30
22787;DHT22;63134;52.020;4.714;2024-01-11T15:27:00;4.70;92.00
22787;DHT22;63134;52.020;4.714;2024-01-11T15:29:47;4.70;92.00
22787;DHT22;63134;52.020;4.714;2024-01-11T15:32:33;4.60;92.00
22787;DHT22;63134;52.020;4.714;2024-01-11T15:35:19;4.60;92.10
22787;DHT22;63134;52.020;4.714;2024-01-11T15:38:05;4.60;92.20
22787;DHT22;63134;52.020;4.714;2024-01-11T15:40:50;4.60;92.10
22787;DHT22;63134;52.020;4.714;2024-01-11T15:43:36;4.60;92.10
22787;DHT22;63134;52.020;4.714;2024-01-11T15:46:22;4.50;92.10
22787;DHT22;63134;52.020;4.714;2024-01-11T15:49:08;4.50;92.20
22787;DHT22;63134;52.020;4.714;2024-01-11T15:51:53;4.40;92.30
22787;DHT22;63134;52.020;4.714;2024-01-11T15:54:39;4.50;92.50
22787;DHT22;63134;52.020;4.714;2024-01-11T15:57:25;4.40;92.50
22787;DHT22;63134;52.020;4.714;2024-01-11T16:00:11;4.40;92.90
22787;DHT22;63134;52.020;4.714;2024-01-11T16:02:57;4.40;92.70
22787;DHT22;63134;52.020;4.714;2024-01-11T16:05:43;4.40;92.70
22787;DHT22;63134;52.020;4.714;2024-01-11T16:08:29;4.40;92.90
22787;DHT22;63134;52.020;4.714;2024-01-11T16:11:15;4.40;92.90
22787;DHT22;63134;52.020;4.714;2024-01-11T16:14:00;4.40;92.90
22787;DHT22;63134;52.020;4.714;2024-01-11T16:16:46;4.40;93.00
22787;DHT22;63134;52.020;4.714;2024-01-11T16:19:31;4.40;92.90
22787;DHT22;63134;52.020;4.714;2024-01-11T16:22:19;4.40;93.10
22787;DHT22;63134;52.020;4.714;2024-01-11T16:25:05;4.40;93.10
22787;DHT22;63134;52.020;4.714;2024-01-11T16:27:52;4.40;93.10
22787;DHT22;63134;52.020;4.714;2024-01-11T16:30:37;4.40;93.10
22787;DHT22;63134;52.020;4.714;2024-01-11T16:33:24;4.40;93.10
22787;DHT22;63134;52.020;4.714;2024-01-11T16:36:10;4.40;93.20
22787;DHT22;63134;52.020;4.714;2024-01-11T16:38:56;4.40;93.20
22787;DHT22;63134;52.020;4.714;2024-01-11T16:41:41;4.40;93.40
22787;DHT22;63134;52.020;4.714;2024-01-11T16:44:28;4.40;93.40
22787;DHT22;63134;52.020;4.714;2024-01-11T16:47:14;4.40;93.40
22787;DHT22;63134;52.020;4.714;2024-01-11T16:50:00;4.40;93.50
22787;DHT22;63134;52.020;4.714;2024-01-11T16:52:45;4.40;93.60
22787;DHT22;63134;52.020;4.714;2024-01-11T16:55:31;4.40;93.60
22787;DHT22;63134;52.020;4.714;2024-01-11T16:58:17;4.40;93.70
22787;DHT22;63134;52.020;4.714;2024-01-11T17:01:03;4.40;93.80
22787;DHT22;63134;52.020;4.714;2024-01-11T17:03:49;4.40;93.90
22787;DHT22;63134;52.020;4.714;2024-01-11T17:06:35;4.40;94.00
22787;DHT22;63134;52.020;4.714;2024-01-11T17:09:20;4.40;94.20
22787;DHT22;63134;52.020;4.714;2024-01-11T17:12:06;4.50;94.20
22787;DHT22;63134;52.020;4.714;2024-01-11T17:14:52;4.50;94.20
22787;DHT22;63134;52.020;4.714;2024-01-11T17:17:42;4.60;94.20
22787;DHT22;63134;52.020;4.714;2024-01-11T17:20:27;4.60;94.20
22787;DHT22;63134;52.020;4.714;2024-01-11T17:23:13;4.60;94.40
22787;DHT22;63134;52.020;4.714;2024-01-11T17:26:00;4.60;94.50
22787;DHT22;63134;52.020;4.714;2024-01-11T17:28:49;4.70;94.60
22787;DHT22;63134;52.020;4.714;2024-01-11T17:31:34;4.70;94.70
22787;DHT22;63134;52.020;4.714;2024-01-11T17:34:22;4.80;94.70
22787;DHT22;63134;52.020;4.714;2024-01-11T17:37:08;4.80;94.50
22787;DHT22;63134;52.020;4.714;2024-01-11T17:39:56;4.80;94.40